sensor_id;sensor_type;location;lat;lon;timestamp;temperature;humidity
24017;DHT22;12222;50.090;19.702;2022-09-06T00:04:25;11.20;99.90
24017;DHT22;12222;50.090;19.702;2022-09-06T00:09:47;11.20;99.90
24017;DHT22;12222;50.090;19.702;2022-09-06T00:15:09;11.10;99.90
24017;DHT22;12222;50.090;19.702;2022-09-06T00:20:32;11.10;99.90
24017;DHT22;12222;50.090;19.702;2022-09-06T00:26:03;11.10;99.90
24017;DHT22;12222;50.090;19.702;2022-09-06T00:31:25;11.20;99.90
24017;DHT22;12222;50.090;19.702;2022-09-06T00:36:48;11.20;99.90
24017;DHT22;12222;50.090;19.702;2022-09-06T00:42:11;11.40;99.90
24017;DHT22;12222;50.090;19.702;2022-09-06T00:47:35;11.50;99.90
24017;DHT22;12222;50.090;19.702;2022-09-06T00:52:58;11.30;99.90
24017;DHT22;12222;50.090;19.702;2022-09-06T00:58:21;11.10;99.90
24017;DHT22;12222;50.090;19.702;2022-09-06T01:03:44;11.10;99.90
24017;DHT22;12222;50.090;19.702;2022-09-06T01:34:06;11.80;99.90
24017;DHT22;12222;50.090;19.702;2022-09-06T01:39:33;11.90;99.90
24017;DHT22;12222;50.090;19.702;2022-09-06T01:45:01;11.70;99.90
24017;DHT22;12222;50.090;19.702;2022-09-06T01:51:00;11.70;99.90
24017;DHT22;12222;50.090;19.702;2022-09-06T02:07:59;11.20;99.90
24017;DHT22;12222;50.090;19.702;2022-09-06T02:13:24;11.40;99.90
24017;DHT22;12222;50.090;19.702;2022-09-06T02:18:55;11.20;99.90
24017;DHT22;12222;50.090;19.702;2022-09-06T02:24:27;11.00;99.90
24017;DHT22;12222;50.090;19.702;2022-09-06T02:29:51;10.90;99.90
24017;DHT22;12222;50.090;19.702;2022-09-06T02:35:15;10.90;99.90
24017;DHT22;12222;50.090;19.702;2022-09-06T02:40:37;11.10;99.90
24017;DHT22;12222;50.090;19.702;2022-09-06T02:46:00;11.10;99.90
24017;DHT22;12222;50.090;19.702;2022-09-06T02:51:22;11.00;99.90
24017;DHT22;12222;50.090;19.702;2022-09-06T02:56:44;11.10;99.90
24017;DHT22;12222;50.090;19.702;2022-09-06T03:02:14;10.90;99.90
24017;DHT22;12222;50.090;19.702;2022-09-06T03:07:37;10.60;99.90
24017;DHT22;12222;50.090;19.702;2022-09-06T03:12:59;10.60;99.90
24017;DHT22;12222;50.090;19.702;2022-09-06T03:18:22;10.60;99.90
24017;DHT22;12222;50.090;19.702;2022-09-06T03:23:44;10.80;99.90
24017;DHT22;12222;50.090;19.702;2022-09-06T03:29:07;10.90;99.90
24017;DHT22;12222;50.090;19.702;2022-09-06T03:34:29;10.80;99.90
24017;DHT22;12222;50.090;19.702;2022-09-06T03:39:51;10.80;99.90
24017;DHT22;12222;50.090;19.702;2022-09-06T03:45:13;10.70;99.90
24017;DHT22;12222;50.090;19.702;2022-09-06T03:50:35;10.60;99.90
24017;DHT22;12222;50.090;19.702;2022-09-06T03:55:57;10.50;99.90
24017;DHT22;12222;50.090;19.702;2022-09-06T04:01:20;10.40;99.90
24017;DHT22;12222;50.090;19.702;2022-09-06T04:06:42;10.30;99.90
24017;DHT22;12222;50.090;19.702;2022-09-06T04:12:04;10.00;99.90
24017;DHT22;12222;50.090;19.702;2022-09-06T04:17:27;10.00;99.90
24017;DHT22;12222;50.090;19.702;2022-09-06T04:22:49;9.90;99.90
24017;DHT22;12222;50.090;19.702;2022-09-06T04:28:11;10.00;99.90
24017;DHT22;12222;50.090;19.702;2022-09-06T04:33:34;10.20;99.90
24017;DHT22;12222;50.090;19.702;2022-09-06T04:38:57;10.20;99.90
24017;DHT22;12222;50.090;19.702;2022-09-06T04:44:19;10.30;99.90
24017;DHT22;12222;50.090;19.702;2022-09-06T04:49:41;10.40;99.90
24017;DHT22;12222;50.090;19.702;2022-09-06T04:55:04;10.60;99.90
24017;DHT22;12222;50.090;19.702;2022-09-06T05:00:28;10.60;99.90
24017;DHT22;12222;50.090;19.702;2022-09-06T05:05:50;10.60;99.90
24017;DHT22;12222;50.090;19.702;2022-09-06T05:11:13;10.70;99.90
24017;DHT22;12222;50.090;19.702;2022-09-06T05:16:35;10.80;99.90
24017;DHT22;12222;50.090;19.702;2022-09-06T05:21:57;11.20;99.90
24017;DHT22;12222;50.090;19.702;2022-09-06T05:27:20;11.80;99.90
24017;DHT22;12222;50.090;19.702;2022-09-06T05:32:42;11.90;99.90
24017;DHT22;12222;50.090;19.702;2022-09-06T05:38:04;11.90;99.90
24017;DHT22;12222;50.090;19.702;2022-09-06T05:43:26;12.10;99.90
24017;DHT22;12222;50.090;19.702;2022-09-06T05:48:56;12.20;99.90
24017;DHT22;12222;50.090;19.702;2022-09-06T05:54:21;12.50;99.90
24017;DHT22;12222;50.090;19.702;2022-09-06T05:59:43;12.70;99.90
24017;DHT22;12222;50.090;19.702;2022-09-06T06:05:06;12.80;99.90
24017;DHT22;12222;50.090;19.702;2022-09-06T06:10:28;13.00;99.90
24017;DHT22;12222;50.090;19.702;2022-09-06T06:15:50;13.00;99.90
24017;DHT22;12222;50.090;19.702;2022-09-06T06:26:36;13.20;99.90
24017;DHT22;12222;50.090;19.702;2022-09-06T06:31:59;13.30;99.90
24017;DHT22;12222;50.090;19.702;2022-09-06T06:37:21;13.40;99.90
24017;DHT22;12222;50.090;19.702;2022-09-06T06:42:43;13.40;99.90
24017;DHT22;12222;50.090;19.702;2022-09-06T06:48:06;13.70;99.90
24017;DHT22;12222;50.090;19.702;2022-09-06T06:53:28;13.80;99.90
24017;DHT22;12222;50.090;19.702;2022-09-06T06:58:52;13.80;99.90
24017;DHT22;12222;50.090;19.702;2022-09-06T07:04:15;14.00;99.90
24017;DHT22;12222;50.090;19.702;2022-09-06T07:09:37;14.10;99.90
24017;DHT22;12222;50.090;19.702;2022-09-06T07:15:20;14.30;99.90
24017;DHT22;12222;50.090;19.702;2022-09-06T07:20:43;14.50;99.90
24017;DHT22;12222;50.090;19.702;2022-09-06T07:26:28;14.40;99.90
24017;DHT22;12222;50.090;19.702;2022-09-06T07:31:50;14.50;99.90
24017;DHT22;12222;50.090;19.702;2022-09-06T07:37:33;14.70;99.90
24017;DHT22;12222;50.090;19.702;2022-09-06T07:42:56;14.90;99.90
24017;DHT22;12222;50.090;19.702;2022-09-06T07:48:19;15.00;99.90
24017;DHT22;12222;50.090;19.702;2022-09-06T07:53:43;15.10;99.90
24017;DHT22;12222;50.090;19.702;2022-09-06T07:59:05;15.60;99.90
24017;DHT22;12222;50.090;19.702;2022-09-06T08:04:28;15.60;99.90
24017;DHT22;12222;50.090;19.702;2022-09-06T08:09:51;15.60;99.90
24017;DHT22;12222;50.090;19.702;2022-09-06T08:15:13;15.90;99.90
24017;DHT22;12222;50.090;19.702;2022-09-06T08:20:36;16.00;99.90
24017;DHT22;12222;50.090;19.702;2022-09-06T08:25:58;16.10;99.90
24017;DHT22;12222;50.090;19.702;2022-09-06T08:31:20;16.40;99.90
24017;DHT22;12222;50.090;19.702;2022-09-06T08:36:43;16.40;99.90
24017;DHT22;12222;50.090;19.702;2022-09-06T08:42:06;16.60;99.90
24017;DHT22;12222;50.090;19.702;2022-09-06T08:47:29;16.80;99.90
24017;DHT22;12222;50.090;19.702;2022-09-06T08:53:04;16.80;99.90
24017;DHT22;12222;50.090;19.702;2022-09-06T09:04:23;17.10;99.90
24017;DHT22;12222;50.090;19.702;2022-09-06T09:09:48;17.30;99.80
24017;DHT22;12222;50.090;19.702;2022-09-06T09:15:14;17.50;98.40
24017;DHT22;12222;50.090;19.702;2022-09-06T09:20:37;17.30;98.50
24017;DHT22;12222;50.090;19.702;2022-09-06T09:26:19;17.50;99.00
24017;DHT22;12222;50.090;19.702;2022-09-06T09:31:49;17.50;98.80
24017;DHT22;12222;50.090;19.702;2022-09-06T09:37:25;17.50;99.60
24017;DHT22;12222;50.090;19.702;2022-09-06T09:43:30;17.50;99.90
24017;DHT22;12222;50.090;19.702;2022-09-06T09:54:34;18.60;97.80
24017;DHT22;12222;50.090;19.702;2022-09-06T09:59:58;18.00;99.50
24017;DHT22;12222;50.090;19.702;2022-09-06T10:05:24;17.70;99.90
24017;DHT22;12222;50.090;19.702;2022-09-06T10:10:48;17.80;99.70
24017;DHT22;12222;50.090;19.702;2022-09-06T10:16:11;18.10;99.10
24017;DHT22;12222;50.090;19.702;2022-09-06T10:21:34;18.10;98.30
24017;DHT22;12222;50.090;19.702;2022-09-06T10:27:00;17.90;98.60
24017;DHT22;12222;50.090;19.702;2022-09-06T10:43:30;18.10;97.10
24017;DHT22;12222;50.090;19.702;2022-09-06T10:48:55;18.30;96.90
24017;DHT22;12222;50.090;19.702;2022-09-06T10:54:22;18.60;96.60
24017;DHT22;12222;50.090;19.702;2022-09-06T11:00:06;19.00;97.40
24017;DHT22;12222;50.090;19.702;2022-09-06T11:05:37;18.90;95.80
24017;DHT22;12222;50.090;19.702;2022-09-06T11:11:07;18.90;96.10
24017;DHT22;12222;50.090;19.702;2022-09-06T11:16:35;19.50;96.90
24017;DHT22;12222;50.090;19.702;2022-09-06T11:27:54;19.70;96.80
24017;DHT22;12222;50.090;19.702;2022-09-06T11:33:30;19.70;94.70
24017;DHT22;12222;50.090;19.702;2022-09-06T11:38:59;19.60;95.40
24017;DHT22;12222;50.090;19.702;2022-09-06T11:56:15;20.00;93.60
24017;DHT22;12222;50.090;19.702;2022-09-06T12:02:01;20.60;92.00
24017;DHT22;12222;50.090;19.702;2022-09-06T12:07:28;20.80;92.00
24017;DHT22;12222;50.090;19.702;2022-09-06T12:12:51;21.10;93.00
24017;DHT22;12222;50.090;19.702;2022-09-06T12:29:59;20.90;91.60
24017;DHT22;12222;50.090;19.702;2022-09-06T12:35:25;20.70;93.20
24017;DHT22;12222;50.090;19.702;2022-09-06T12:41:08;20.90;94.00
24017;DHT22;12222;50.090;19.702;2022-09-06T12:46:31;20.80;92.60
24017;DHT22;12222;50.090;19.702;2022-09-06T12:52:14;20.80;93.00
24017;DHT22;12222;50.090;19.702;2022-09-06T12:57:46;20.60;91.90
24017;DHT22;12222;50.090;19.702;2022-09-06T13:03:15;19.90;93.70
24017;DHT22;12222;50.090;19.702;2022-09-06T13:08:47;19.90;93.90
24017;DHT22;12222;50.090;19.702;2022-09-06T13:14:12;20.10;93.70
24017;DHT22;12222;50.090;19.702;2022-09-06T13:19:39;20.00;93.30
24017;DHT22;12222;50.090;19.702;2022-09-06T13:25:04;20.20;93.00
24017;DHT22;12222;50.090;19.702;2022-09-06T13:30:35;20.20;92.40
24017;DHT22;12222;50.090;19.702;2022-09-06T13:41:36;19.80;93.60
24017;DHT22;12222;50.090;19.702;2022-09-06T13:46:59;19.50;93.40
24017;DHT22;12222;50.090;19.702;2022-09-06T13:52:21;19.40;93.70
24017;DHT22;12222;50.090;19.702;2022-09-06T13:57:44;19.50;95.40
24017;DHT22;12222;50.090;19.702;2022-09-06T14:03:07;19.60;93.70
24017;DHT22;12222;50.090;19.702;2022-09-06T14:08:31;19.60;94.00
24017;DHT22;12222;50.090;19.702;2022-09-06T14:14:13;19.50;93.20
24017;DHT22;12222;50.090;19.702;2022-09-06T14:19:35;19.40;94.30
24017;DHT22;12222;50.090;19.702;2022-09-06T14:24:57;19.50;94.10
24017;DHT22;12222;50.090;19.702;2022-09-06T14:30:20;19.40;93.90
24017;DHT22;12222;50.090;19.702;2022-09-06T14:35:42;19.30;94.70
24017;DHT22;12222;50.090;19.702;2022-09-06T14:41:05;19.40;95.80
24017;DHT22;12222;50.090;19.702;2022-09-06T14:46:27;19.40;93.80
24017;DHT22;12222;50.090;19.702;2022-09-06T14:51:51;19.50;94.00
24017;DHT22;12222;50.090;19.702;2022-09-06T14:57:14;19.40;95.30
24017;DHT22;12222;50.090;19.702;2022-09-06T15:02:36;19.50;94.90
24017;DHT22;12222;50.090;19.702;2022-09-06T15:07:59;19.50;95.80
24017;DHT22;12222;50.090;19.702;2022-09-06T15:13:24;19.50;96.90
24017;DHT22;12222;50.090;19.702;2022-09-06T15:18:47;19.30;94.50
24017;DHT22;12222;50.090;19.702;2022-09-06T15:24:10;19.10;94.30
24017;DHT22;12222;50.090;19.702;2022-09-06T15:29:33;19.00;95.20
24017;DHT22;12222;50.090;19.702;2022-09-06T15:34:55;19.00;94.30
24017;DHT22;12222;50.090;19.702;2022-09-06T15:40:23;19.10;95.00
24017;DHT22;12222;50.090;19.702;2022-09-06T15:45:48;18.90;95.60
24017;DHT22;12222;50.090;19.702;2022-09-06T15:51:14;18.90;95.50
24017;DHT22;12222;50.090;19.702;2022-09-06T15:56:37;18.80;96.20
24017;DHT22;12222;50.090;19.702;2022-09-06T16:01:59;18.80;95.10
24017;DHT22;12222;50.090;19.702;2022-09-06T16:07:21;18.60;95.70
24017;DHT22;12222;50.090;19.702;2022-09-06T16:12:43;18.30;96.30
24017;DHT22;12222;50.090;19.702;2022-09-06T16:18:11;18.10;97.00
24017;DHT22;12222;50.090;19.702;2022-09-06T16:23:37;17.80;97.30
24017;DHT22;12222;50.090;19.702;2022-09-06T16:29:01;17.60;99.90
24017;DHT22;12222;50.090;19.702;2022-09-06T16:34:23;17.30;99.90
24017;DHT22;12222;50.090;19.702;2022-09-06T16:39:46;17.00;99.90
24017;DHT22;12222;50.090;19.702;2022-09-06T16:45:09;16.90;99.90
24017;DHT22;12222;50.090;19.702;2022-09-06T16:50:32;16.70;99.90
24017;DHT22;12222;50.090;19.702;2022-09-06T16:55:55;16.40;99.90
24017;DHT22;12222;50.090;19.702;2022-09-06T17:01:17;16.00;99.90
24017;DHT22;12222;50.090;19.702;2022-09-06T17:06:40;16.00;99.90
24017;DHT22;12222;50.090;19.702;2022-09-06T17:12:06;15.90;99.90
24017;DHT22;12222;50.090;19.702;2022-09-06T17:17:28;15.60;99.90
24017;DHT22;12222;50.090;19.702;2022-09-06T17:22:50;15.60;99.90
24017;DHT22;12222;50.090;19.702;2022-09-06T17:28:12;15.40;99.90
24017;DHT22;12222;50.090;19.702;2022-09-06T17:33:35;15.00;99.90
24017;DHT22;12222;50.090;19.702;2022-09-06T17:39:05;14.90;99.90
24017;DHT22;12222;50.090;19.702;2022-09-06T17:44:28;14.80;99.90
24017;DHT22;12222;50.090;19.702;2022-09-06T17:49:50;14.80;99.90
24017;DHT22;12222;50.090;19.702;2022-09-06T17:55:12;14.60;99.90
24017;DHT22;12222;50.090;19.702;2022-09-06T18:00:37;14.30;99.90
24017;DHT22;12222;50.090;19.702;2022-09-06T18:06:09;14.30;99.90
24017;DHT22;12222;50.090;19.702;2022-09-06T18:11:32;14.30;99.90
24017;DHT22;12222;50.090;19.702;2022-09-06T18:16:55;14.10;99.90
24017;DHT22;12222;50.090;19.702;2022-09-06T18:22:17;14.10;99.90
24017;DHT22;12222;50.090;19.702;2022-09-06T18:27:39;14.00;99.90
24017;DHT22;12222;50.090;19.702;2022-09-06T18:33:02;14.20;99.90
24017;DHT22;12222;50.090;19.702;2022-09-06T18:38:24;13.90;99.90
24017;DHT22;12222;50.090;19.702;2022-09-06T18:43:46;13.90;99.90
24017;DHT22;12222;50.090;19.702;2022-09-06T18:49:09;14.10;99.90
24017;DHT22;12222;50.090;19.702;2022-09-06T18:54:32;14.10;99.90
24017;DHT22;12222;50.090;19.702;2022-09-06T18:59:54;14.20;99.90
24017;DHT22;12222;50.090;19.702;2022-09-06T19:05:16;14.00;99.90
24017;DHT22;12222;50.090;19.702;2022-09-06T19:10:38;14.00;99.90
24017;DHT22;12222;50.090;19.702;2022-09-06T19:16:00;14.00;99.90
24017;DHT22;12222;50.090;19.702;2022-09-06T19:21:24;14.20;99.90
24017;DHT22;12222;50.090;19.702;2022-09-06T19:26:47;14.10;99.90
24017;DHT22;12222;50.090;19.702;2022-09-06T19:32:09;13.90;99.90
24017;DHT22;12222;50.090;19.702;2022-09-06T19:37:32;13.60;99.90
24017;DHT22;12222;50.090;19.702;2022-09-06T19:42:55;13.40;99.90
24017;DHT22;12222;50.090;19.702;2022-09-06T19:48:18;13.70;99.90
24017;DHT22;12222;50.090;19.702;2022-09-06T19:53:42;13.80;99.90
24017;DHT22;12222;50.090;19.702;2022-09-06T19:59:07;13.70;99.90
24017;DHT22;12222;50.090;19.702;2022-09-06T20:04:29;13.70;99.90
24017;DHT22;12222;50.090;19.702;2022-09-06T20:09:51;13.60;99.90
24017;DHT22;12222;50.090;19.702;2022-09-06T20:15:14;13.60;99.90
24017;DHT22;12222;50.090;19.702;2022-09-06T20:20:36;13.50;99.90
24017;DHT22;12222;50.090;19.702;2022-09-06T20:26:07;13.40;99.90
24017;DHT22;12222;50.090;19.702;2022-09-06T20:31:30;13.40;99.90
24017;DHT22;12222;50.090;19.702;2022-09-06T20:36:53;13.20;99.90
24017;DHT22;12222;50.090;19.702;2022-09-06T20:42:15;13.10;99.90
24017;DHT22;12222;50.090;19.702;2022-09-06T20:47:37;13.00;99.90
24017;DHT22;12222;50.090;19.702;2022-09-06T20:52:59;12.80;99.90
24017;DHT22;12222;50.090;19.702;2022-09-06T20:58:22;12.90;99.90
24017;DHT22;12222;50.090;19.702;2022-09-06T21:03:44;12.90;99.90
24017;DHT22;12222;50.090;19.702;2022-09-06T21:09:09;12.70;99.90
24017;DHT22;12222;50.090;19.702;2022-09-06T21:14:32;12.70;99.90
24017;DHT22;12222;50.090;19.702;2022-09-06T21:19:54;12.60;99.90
24017;DHT22;12222;50.090;19.702;2022-09-06T21:25:16;12.40;99.90
24017;DHT22;12222;50.090;19.702;2022-09-06T21:30:38;12.50;99.90
24017;DHT22;12222;50.090;19.702;2022-09-06T21:36:06;12.50;99.90
24017;DHT22;12222;50.090;19.702;2022-09-06T21:41:30;12.50;99.90
24017;DHT22;12222;50.090;19.702;2022-09-06T21:46:52;12.60;99.90
24017;DHT22;12222;50.090;19.702;2022-09-06T21:52:14;12.50;99.90
24017;DHT22;12222;50.090;19.702;2022-09-06T21:57:37;12.50;99.90
24017;DHT22;12222;50.090;19.702;2022-09-06T22:02:59;12.50;99.90
24017;DHT22;12222;50.090;19.702;2022-09-06T22:08:22;12.40;99.90
24017;DHT22;12222;50.090;19.702;2022-09-06T22:13:45;12.30;99.90
24017;DHT22;12222;50.090;19.702;2022-09-06T22:19:08;12.30;99.90
24017;DHT22;12222;50.090;19.702;2022-09-06T22:24:31;12.20;99.90
24017;DHT22;12222;50.090;19.702;2022-09-06T22:29:54;12.20;99.90
24017;DHT22;12222;50.090;19.702;2022-09-06T22:35:16;12.20;99.90
24017;DHT22;12222;50.090;19.702;2022-09-06T22:40:38;12.20;99.90
24017;DHT22;12222;50.090;19.702;2022-09-06T22:46:05;12.00;99.90
24017;DHT22;12222;50.090;19.702;2022-09-06T22:51:28;12.00;99.90
24017;DHT22;12222;50.090;19.702;2022-09-06T22:56:50;11.90;99.90
24017;DHT22;12222;50.090;19.702;2022-09-06T23:02:12;12.00;99.90
24017;DHT22;12222;50.090;19.702;2022-09-06T23:07:34;11.90;99.90
24017;DHT22;12222;50.090;19.702;2022-09-06T23:12:57;11.90;99.90
24017;DHT22;12222;50.090;19.702;2022-09-06T23:18:20;11.90;99.90
24017;DHT22;12222;50.090;19.702;2022-09-06T23:23:42;11.90;99.90
24017;DHT22;12222;50.090;19.702;2022-09-06T23:29:04;11.80;99.90
24017;DHT22;12222;50.090;19.702;2022-09-06T23:34:27;11.80;99.90
24017;DHT22;12222;50.090;19.702;2022-09-06T23:39:49;11.70;99.90
24017;DHT22;12222;50.090;19.702;2022-09-06T23:45:12;11.70;99.90
24017;DHT22;12222;50.090;19.702;2022-09-06T23:50:34;11.60;99.90
24017;DHT22;12222;50.090;19.702;2022-09-06T23:55:56;11.50;99.90
